sensor_id;sensor_type;location;lat;lon;timestamp;pressure;altitude;pressure_sealevel;temperature;humidity
27643;BME280;15053;48.618;10.024;2023-12-07T00:01:58;94436.59;;;1.78;100.00
27643;BME280;15053;48.618;10.024;2023-12-07T00:04:25;94436.59;;;1.78;100.00
27643;BME280;15053;48.618;10.024;2023-12-07T00:06:51;94432.78;;;1.81;100.00
27643;BME280;15053;48.618;10.024;2023-12-07T00:09:18;94436.13;;;1.81;100.00
27643;BME280;15053;48.618;10.024;2023-12-07T00:11:45;94438.22;;;1.84;100.00
27643;BME280;15053;48.618;10.024;2023-12-07T00:14:11;94434.66;;;1.85;100.00
27643;BME280;15053;48.618;10.024;2023-12-07T00:16:38;94439.34;;;1.88;100.00
27643;BME280;15053;48.618;10.024;2023-12-07T00:19:05;94444.81;;;1.92;100.00
27643;BME280;15053;48.618;10.024;2023-12-07T00:21:31;94446.34;;;1.93;100.00
27643;BME280;15053;48.618;10.024;2023-12-07T00:23:58;94453.84;;;1.94;100.00
27643;BME280;15053;48.618;10.024;2023-12-07T00:26:24;94457.84;;;1.90;98.50
27643;BME280;15053;48.618;10.024;2023-12-07T00:28:50;94464.22;;;1.88;97.49
27643;BME280;15053;48.618;10.024;2023-12-07T00:31:17;94457.22;;;1.83;97.50
27643;BME280;15053;48.618;10.024;2023-12-07T00:33:44;94460.78;;;1.82;97.94
27643;BME280;15053;48.618;10.024;2023-12-07T00:36:12;94456.88;;;1.79;97.83
27643;BME280;15053;48.618;10.024;2023-12-07T00:38:39;94460.22;;;1.80;98.24
27643;BME280;15053;48.618;10.024;2023-12-07T00:41:05;94473.31;;;1.78;98.23
27643;BME280;15053;48.618;10.024;2023-12-07T00:43:32;94464.81;;;1.78;97.35
27643;BME280;15053;48.618;10.024;2023-12-07T00:45:58;94474.06;;;1.79;97.80
27643;BME280;15053;48.618;10.024;2023-12-07T00:48:25;94475.09;;;1.78;97.09
27643;BME280;15053;48.618;10.024;2023-12-07T00:50:51;94477.09;;;1.76;97.34
27643;BME280;15053;48.618;10.024;2023-12-07T00:53:18;94473.53;;;1.77;96.99
27643;BME280;15053;48.618;10.024;2023-12-07T00:55:44;94471.94;;;1.76;97.00
27643;BME280;15053;48.618;10.024;2023-12-07T00:58:11;94474.50;;;1.76;97.16
27643;BME280;15053;48.618;10.024;2023-12-07T01:00:37;94476.88;;;1.77;97.01
27643;BME280;15053;48.618;10.024;2023-12-07T01:03:04;94479.00;;;1.81;96.96
27643;BME280;15053;48.618;10.024;2023-12-07T01:05:31;94478.66;;;1.77;96.73
27643;BME280;15053;48.618;10.024;2023-12-07T01:07:58;94490.69;;;1.76;97.38
27643;BME280;15053;48.618;10.024;2023-12-07T01:10:25;94488.13;;;1.76;96.91
27643;BME280;15053;48.618;10.024;2023-12-07T01:12:52;94490.94;;;1.75;96.76
27643;BME280;15053;48.618;10.024;2023-12-07T01:15:18;94485.81;;;1.75;96.49
27643;BME280;15053;48.618;10.024;2023-12-07T01:17:45;94487.59;;;1.74;96.85
27643;BME280;15053;48.618;10.024;2023-12-07T01:20:11;94494.50;;;1.74;96.38
27643;BME280;15053;48.618;10.024;2023-12-07T01:22:40;94485.81;;;1.75;95.96
27643;BME280;15053;48.618;10.024;2023-12-07T01:25:07;94499.97;;;1.77;95.78
27643;BME280;15053;48.618;10.024;2023-12-07T01:27:34;94499.19;;;1.77;96.16
27643;BME280;15053;48.618;10.024;2023-12-07T01:30:01;94497.94;;;1.79;96.08
27643;BME280;15053;48.618;10.024;2023-12-07T01:32:27;94496.72;;;1.82;95.70
27643;BME280;15053;48.618;10.024;2023-12-07T01:34:54;94500.63;;;1.85;95.69
27643;BME280;15053;48.618;10.024;2023-12-07T01:37:20;94507.66;;;1.89;95.47
27643;BME280;15053;48.618;10.024;2023-12-07T01:39:47;94504.06;;;1.90;95.33
27643;BME280;15053;48.618;10.024;2023-12-07T01:42:15;94505.09;;;1.89;95.22
27643;BME280;15053;48.618;10.024;2023-12-07T01:44:41;94504.66;;;1.92;95.36
27643;BME280;15053;48.618;10.024;2023-12-07T01:47:08;94506.97;;;1.94;95.46
27643;BME280;15053;48.618;10.024;2023-12-07T01:49:36;94508.31;;;1.96;95.02
27643;BME280;15053;48.618;10.024;2023-12-07T01:52:04;94495.69;;;1.95;95.41
27643;BME280;15053;48.618;10.024;2023-12-07T01:54:31;94502.72;;;1.99;95.16
27643;BME280;15053;48.618;10.024;2023-12-07T01:56:58;94503.50;;;2.00;95.33
27643;BME280;15053;48.618;10.024;2023-12-07T01:59:25;94505.28;;;1.99;94.46
27643;BME280;15053;48.618;10.024;2023-12-07T02:01:51;94506.06;;;2.00;94.36
27643;BME280;15053;48.618;10.024;2023-12-07T02:04:18;94513.78;;;2.00;94.18
27643;BME280;15053;48.618;10.024;2023-12-07T02:06:45;94512.00;;;2.00;94.15
27643;BME280;15053;48.618;10.024;2023-12-07T02:09:11;94513.53;;;2.01;94.19
27643;BME280;15053;48.618;10.024;2023-12-07T02:11:38;94507.59;;;2.01;93.79
27643;BME280;15053;48.618;10.024;2023-12-07T02:14:05;94513.31;;;2.03;93.79
27643;BME280;15053;48.618;10.024;2023-12-07T02:16:55;94508.97;;;2.03;93.37
27643;BME280;15053;48.618;10.024;2023-12-07T02:22:12;94510.97;;;2.01;93.14
27643;BME280;15053;48.618;10.024;2023-12-07T02:24:56;94508.09;;;1.98;93.50
27643;BME280;15053;48.618;10.024;2023-12-07T02:27:46;94510.09;;;1.96;93.46
27643;BME280;15053;48.618;10.024;2023-12-07T02:30:13;94513.88;;;1.93;93.31
27643;BME280;15053;48.618;10.024;2023-12-07T02:32:41;94515.13;;;1.91;93.08
27643;BME280;15053;48.618;10.024;2023-12-07T02:35:09;94508.56;;;1.83;93.26
27643;BME280;15053;48.618;10.024;2023-12-07T02:37:41;94508.56;;;1.83;92.65
27643;BME280;15053;48.618;10.024;2023-12-07T02:40:08;94510.88;;;1.85;92.74
27643;BME280;15053;48.618;10.024;2023-12-07T02:42:38;94510.56;;;1.81;93.00
27643;BME280;15053;48.618;10.024;2023-12-07T02:45:07;94510.78;;;1.79;92.92
27643;BME280;15053;48.618;10.024;2023-12-07T02:47:35;94518.16;;;1.76;92.92
27643;BME280;15053;48.618;10.024;2023-12-07T02:50:03;94514.13;;;1.80;93.12
27643;BME280;15053;48.618;10.024;2023-12-07T02:52:30;94512.13;;;1.82;93.21
27643;BME280;15053;48.618;10.024;2023-12-07T02:54:57;94514.47;;;1.84;93.27
27643;BME280;15053;48.618;10.024;2023-12-07T02:57:23;94521.72;;;1.87;93.79
27643;BME280;15053;48.618;10.024;2023-12-07T02:59:50;94516.81;;;1.85;93.88
27643;BME280;15053;48.618;10.024;2023-12-07T03:02:17;94521.94;;;1.85;93.38
27643;BME280;15053;48.618;10.024;2023-12-07T03:04:43;94521.94;;;1.85;93.58
27643;BME280;15053;48.618;10.024;2023-12-07T03:07:10;94525.50;;;1.84;93.68
27643;BME280;15053;48.618;10.024;2023-12-07T03:09:36;94520.38;;;1.84;94.26
27643;BME280;15053;48.618;10.024;2023-12-07T03:12:03;94515.22;;;1.84;94.10
27643;BME280;15053;48.618;10.024;2023-12-07T03:14:29;94511.66;;;1.85;93.94
27643;BME280;15053;48.618;10.024;2023-12-07T03:16:56;94505.75;;;1.85;94.10
27643;BME280;15053;48.618;10.024;2023-12-07T03:19:22;94509.19;;;1.90;94.52
27643;BME280;15053;48.618;10.024;2023-12-07T03:21:49;94515.91;;;1.91;94.18
27643;BME280;15053;48.618;10.024;2023-12-07T03:24:16;94516.69;;;1.92;94.26
27643;BME280;15053;48.618;10.024;2023-12-07T03:26:42;94517.94;;;1.89;94.80
27643;BME280;15053;48.618;10.024;2023-12-07T03:29:09;94521.03;;;1.91;94.25
27643;BME280;15053;48.618;10.024;2023-12-07T03:31:35;94526.19;;;1.91;94.12
27643;BME280;15053;48.618;10.024;2023-12-07T03:34:02;94530.53;;;1.91;93.87
27643;BME280;15053;48.618;10.024;2023-12-07T03:36:30;94522.38;;;1.82;93.70
27643;BME280;15053;48.618;10.024;2023-12-07T03:38:58;94527.31;;;1.84;93.38
27643;BME280;15053;48.618;10.024;2023-12-07T03:41:24;94527.53;;;1.82;93.23
27643;BME280;15053;48.618;10.024;2023-12-07T03:43:51;94522.38;;;1.82;93.14
27643;BME280;15053;48.618;10.024;2023-12-07T03:46:17;94527.53;;;1.82;93.08
27643;BME280;15053;48.618;10.024;2023-12-07T03:48:44;94517.25;;;1.82;93.32
27643;BME280;15053;48.618;10.024;2023-12-07T03:51:13;94524.50;;;1.85;93.60
27643;BME280;15053;48.618;10.024;2023-12-07T03:53:39;94519.91;;;1.87;94.04
27643;BME280;15053;48.618;10.024;2023-12-07T03:56:07;94526.63;;;1.88;93.35
27643;BME280;15053;48.618;10.024;2023-12-07T03:58:33;94526.38;;;1.90;93.13
27643;BME280;15053;48.618;10.024;2023-12-07T04:01:00;94531.53;;;1.90;92.81
27643;BME280;15053;48.618;10.024;2023-12-07T04:03:27;94526.19;;;1.91;93.03
27643;BME280;15053;48.618;10.024;2023-12-07T04:05:53;94532.88;;;1.92;92.83
27643;BME280;15053;48.618;10.024;2023-12-07T04:08:20;94529.28;;;1.93;92.99
27643;BME280;15053;48.618;10.024;2023-12-07T04:10:46;94533.19;;;1.96;92.81
27643;BME280;15053;48.618;10.024;2023-12-07T04:13:13;94519.47;;;1.90;93.07
27643;BME280;15053;48.618;10.024;2023-12-07T04:15:39;94525.28;;;1.97;93.02
27643;BME280;15053;48.618;10.024;2023-12-07T04:18:06;94532.97;;;1.97;93.04
27643;BME280;15053;48.618;10.024;2023-12-07T04:20:32;94527.41;;;2.00;93.27
27643;BME280;15053;48.618;10.024;2023-12-07T04:22:59;94531.50;;;2.01;93.51
27643;BME280;15053;48.618;10.024;2023-12-07T04:25:26;94532.28;;;2.02;93.69
27643;BME280;15053;48.618;10.024;2023-12-07T04:27:52;94534.66;;;2.03;93.30
27643;BME280;15053;48.618;10.024;2023-12-07T04:30:19;94537.97;;;2.04;93.71
27643;BME280;15053;48.618;10.024;2023-12-07T04:32:45;94534.66;;;2.03;93.68
27643;BME280;15053;48.618;10.024;2023-12-07T04:35:12;94541.56;;;2.03;93.57
27643;BME280;15053;48.618;10.024;2023-12-07T04:37:38;94543.91;;;2.04;93.31
27643;BME280;15053;48.618;10.024;2023-12-07T04:40:06;94544.94;;;2.03;93.38
27643;BME280;15053;48.618;10.024;2023-12-07T04:42:33;94548.50;;;2.02;92.78
27643;BME280;15053;48.618;10.024;2023-12-07T04:44:59;94550.50;;;2.00;92.45
27643;BME280;15053;48.618;10.024;2023-12-07T04:47:26;94548.38;;;1.97;92.99
27643;BME280;15053;48.618;10.024;2023-12-07T04:49:53;94552.63;;;1.92;92.40
27643;BME280;15053;48.618;10.024;2023-12-07T04:52:20;94545.28;;;1.84;92.13
27643;BME280;15053;48.618;10.024;2023-12-07T04:54:47;94560.69;;;1.84;92.27
27643;BME280;15053;48.618;10.024;2023-12-07T04:57:13;94552.09;;;1.78;92.44
27643;BME280;15053;48.618;10.024;2023-12-07T04:59:40;94553.19;;;1.82;92.50
27643;BME280;15053;48.618;10.024;2023-12-07T05:02:07;94550.41;;;1.84;92.64
27643;BME280;15053;48.618;10.024;2023-12-07T05:04:33;94551.97;;;1.85;92.88
27643;BME280;15053;48.618;10.024;2023-12-07T05:07:00;94546.81;;;1.85;92.79
27643;BME280;15053;48.618;10.024;2023-12-07T05:09:28;94551.19;;;1.84;93.32
27643;BME280;15053;48.618;10.024;2023-12-07T05:11:57;94547.63;;;1.85;93.14
27643;BME280;15053;48.618;10.024;2023-12-07T05:14:24;94548.59;;;1.84;93.17
27643;BME280;15053;48.618;10.024;2023-12-07T05:16:51;94548.94;;;1.88;93.03
27643;BME280;15053;48.618;10.024;2023-12-07T05:19:20;94551.50;;;1.88;93.40
27643;BME280;15053;48.618;10.024;2023-12-07T05:21:47;94549.97;;;1.87;92.96
27643;BME280;15053;48.618;10.024;2023-12-07T05:24:14;94551.75;;;1.86;93.16
27643;BME280;15053;48.618;10.024;2023-12-07T05:26:41;94551.97;;;1.85;93.94
27643;BME280;15053;48.618;10.024;2023-12-07T05:29:08;94550.41;;;1.84;93.59
27643;BME280;15053;48.618;10.024;2023-12-07T05:31:34;94545.50;;;1.82;94.18
27643;BME280;15053;48.618;10.024;2023-12-07T05:34:01;94542.94;;;1.82;94.03
27643;BME280;15053;48.618;10.024;2023-12-07T05:36:28;94547.84;;;1.84;94.32
27643;BME280;15053;48.618;10.024;2023-12-07T05:38:55;94546.28;;;1.83;94.46
27643;BME280;15053;48.618;10.024;2023-12-07T05:41:22;94554.78;;;1.83;94.88
27643;BME280;15053;48.618;10.024;2023-12-07T05:43:48;94555.75;;;1.82;94.84
27643;BME280;15053;48.618;10.024;2023-12-07T05:46:15;94562.69;;;1.82;95.16
27643;BME280;15053;48.618;10.024;2023-12-07T05:48:44;94560.91;;;1.82;94.68
27643;BME280;15053;48.618;10.024;2023-12-07T05:51:13;94550.63;;;1.82;94.94
27643;BME280;15053;48.618;10.024;2023-12-07T05:53:41;94547.06;;;1.83;94.79
27643;BME280;15053;48.618;10.024;2023-12-07T05:56:07;94556.31;;;1.84;95.35
27643;BME280;15053;48.618;10.024;2023-12-07T05:58:34;94553.75;;;1.84;94.77
27643;BME280;15053;48.618;10.024;2023-12-07T06:01:01;94557.78;;;1.80;94.43
27643;BME280;15053;48.618;10.024;2023-12-07T06:03:29;94554.09;;;1.76;94.39
27643;BME280;15053;48.618;10.024;2023-12-07T06:05:56;94562.81;;;1.75;93.91
27643;BME280;15053;48.618;10.024;2023-12-07T06:08:22;94557.13;;;1.73;93.52
27643;BME280;15053;48.618;10.024;2023-12-07T06:10:49;94560.44;;;1.73;93.54
27643;BME280;15053;48.618;10.024;2023-12-07T06:13:15;94557.13;;;1.73;93.65
27643;BME280;15053;48.618;10.024;2023-12-07T06:15:42;94564.84;;;1.73;93.66
27643;BME280;15053;48.618;10.024;2023-12-07T06:18:08;94564.03;;;1.72;93.71
27643;BME280;15053;48.618;10.024;2023-12-07T06:20:35;94560.16;;;1.70;93.89
27643;BME280;15053;48.618;10.024;2023-12-07T06:23:02;94562.47;;;1.71;93.67
27643;BME280;15053;48.618;10.024;2023-12-07T06:25:28;94564.84;;;1.73;93.35
27643;BME280;15053;48.618;10.024;2023-12-07T06:27:55;94553.78;;;1.72;93.71
27643;BME280;15053;48.618;10.024;2023-12-07T06:30:22;94563.25;;;1.72;93.66
27643;BME280;15053;48.618;10.024;2023-12-07T06:32:49;94561.69;;;1.71;93.60
27643;BME280;15053;48.618;10.024;2023-12-07T06:35:15;94575.09;;;1.73;93.59
27643;BME280;15053;48.618;10.024;2023-12-07T06:37:42;94559.69;;;1.73;93.44
27643;BME280;15053;48.618;10.024;2023-12-07T06:40:09;94569.72;;;1.74;93.95
27643;BME280;15053;48.618;10.024;2023-12-07T06:42:36;94556.66;;;1.76;93.84
27643;BME280;15053;48.618;10.024;2023-12-07T06:45:03;94561.59;;;1.77;94.47
27643;BME280;15053;48.618;10.024;2023-12-07T06:47:30;94559.81;;;1.78;93.69
27643;BME280;15053;48.618;10.024;2023-12-07T06:49:57;94564.69;;;1.79;94.54
27643;BME280;15053;48.618;10.024;2023-12-07T06:52:23;94561.91;;;1.81;94.07
27643;BME280;15053;48.618;10.024;2023-12-07T06:54:50;94565.03;;;1.83;94.03
27643;BME280;15053;48.618;10.024;2023-12-07T06:57:17;94568.59;;;1.82;94.17
27643;BME280;15053;48.618;10.024;2023-12-07T06:59:43;94564.25;;;1.83;93.69
27643;BME280;15053;48.618;10.024;2023-12-07T07:02:10;94568.59;;;1.82;93.43
27643;BME280;15053;48.618;10.024;2023-12-07T07:04:36;94565.81;;;1.84;93.18
27643;BME280;15053;48.618;10.024;2023-12-07T07:07:03;94565.59;;;1.85;93.81
27643;BME280;15053;48.618;10.024;2023-12-07T07:09:30;94549.97;;;1.75;93.27
27643;BME280;15053;48.618;10.024;2023-12-07T07:11:56;94565.13;;;1.88;93.77
27643;BME280;15053;48.618;10.024;2023-12-07T07:14:23;94571.59;;;1.91;93.54
27643;BME280;15053;48.618;10.024;2023-12-07T07:16:50;94572.72;;;1.95;93.77
27643;BME280;15053;48.618;10.024;2023-12-07T07:19:18;94572.50;;;1.96;93.59
27643;BME280;15053;48.618;10.024;2023-12-07T07:21:45;94575.41;;;2.00;93.22
27643;BME280;15053;48.618;10.024;2023-12-07T07:24:11;94577.53;;;2.03;92.95
27643;BME280;15053;48.618;10.024;2023-12-07T07:26:38;94582.41;;;2.04;92.69
27643;BME280;15053;48.618;10.024;2023-12-07T07:29:05;94569.59;;;2.04;92.79
27643;BME280;15053;48.618;10.024;2023-12-07T07:31:32;94574.28;;;2.07;92.54
27643;BME280;15053;48.618;10.024;2023-12-07T07:33:59;94560.19;;;2.10;92.79
27643;BME280;15053;48.618;10.024;2023-12-07T07:36:27;94568.56;;;2.17;92.45
27643;BME280;15053;48.618;10.024;2023-12-07T07:38:54;94571.44;;;2.20;92.18
27643;BME280;15053;48.618;10.024;2023-12-07T07:41:21;94572.56;;;2.24;92.34
27643;BME280;15053;48.618;10.024;2023-12-07T07:43:48;94579.81;;;2.27;92.25
27643;BME280;15053;48.618;10.024;2023-12-07T07:46:14;94573.66;;;2.28;91.64
27643;BME280;15053;48.618;10.024;2023-12-07T07:48:41;94567.06;;;2.32;91.98
27643;BME280;15053;48.618;10.024;2023-12-07T07:51:08;94556.00;;;2.32;91.79
27643;BME280;15053;48.618;10.024;2023-12-07T07:53:34;94563.81;;;2.37;91.76
27643;BME280;15053;48.618;10.024;2023-12-07T07:56:01;94558.47;;;2.38;91.63
27643;BME280;15053;48.618;10.024;2023-12-07T07:58:28;94566.63;;;2.35;91.37
27643;BME280;15053;48.618;10.024;2023-12-07T08:00:54;94567.28;;;2.31;91.12
27643;BME280;15053;48.618;10.024;2023-12-07T08:03:21;94568.22;;;2.25;90.63
27643;BME280;15053;48.618;10.024;2023-12-07T08:05:47;94571.00;;;2.23;90.93
27643;BME280;15053;48.618;10.024;2023-12-07T08:08:14;94571.09;;;2.28;90.76
27643;BME280;15053;48.618;10.024;2023-12-07T08:10:40;94571.97;;;2.34;90.49
27643;BME280;15053;48.618;10.024;2023-12-07T08:13:21;94574.63;;;2.39;90.42
27643;BME280;15053;48.618;10.024;2023-12-07T08:15:48;94567.81;;;2.45;90.05
27643;BME280;15053;48.618;10.024;2023-12-07T08:18:15;94568.91;;;2.49;89.71
27643;BME280;15053;48.618;10.024;2023-12-07T08:20:42;94564.78;;;2.48;89.60
27643;BME280;15053;48.618;10.024;2023-12-07T08:23:08;94573.94;;;2.55;89.50
27643;BME280;15053;48.618;10.024;2023-12-07T08:25:35;94574.56;;;2.62;89.49
27643;BME280;15053;48.618;10.024;2023-12-07T08:28:01;94566.94;;;2.67;89.42
27643;BME280;15053;48.618;10.024;2023-12-07T08:30:29;94562.34;;;2.69;89.68
27643;BME280;15053;48.618;10.024;2023-12-07T08:32:56;94567.16;;;2.77;89.43
27643;BME280;15053;48.618;10.024;2023-12-07T08:35:23;94564.66;;;2.82;89.26
27643;BME280;15053;48.618;10.024;2023-12-07T08:37:49;94572.13;;;2.84;89.39
27643;BME280;15053;48.618;10.024;2023-12-07T08:40:16;94568.84;;;2.88;89.05
27643;BME280;15053;48.618;10.024;2023-12-07T08:42:46;94562.97;;;2.88;88.95
27643;BME280;15053;48.618;10.024;2023-12-07T08:45:17;94572.63;;;2.97;88.73
27643;BME280;15053;48.618;10.024;2023-12-07T08:47:43;94570.59;;;2.99;88.07
27643;BME280;15053;48.618;10.024;2023-12-07T08:50:10;94568.25;;;2.98;87.68
27643;BME280;15053;48.618;10.024;2023-12-07T08:52:37;94566.81;;;3.02;87.64
27643;BME280;15053;48.618;10.024;2023-12-07T08:55:13;94575.13;;;3.09;87.56
27643;BME280;15053;48.618;10.024;2023-12-07T08:57:42;94575.75;;;3.16;87.06
27643;BME280;15053;48.618;10.024;2023-12-07T09:00:09;94576.41;;;3.23;86.85
27643;BME280;15053;48.618;10.024;2023-12-07T09:02:39;94569.00;;;3.27;86.22
27643;BME280;15053;48.618;10.024;2023-12-07T09:05:13;94582.34;;;3.40;86.11
27643;BME280;15053;48.618;10.024;2023-12-07T09:07:40;94578.81;;;3.46;85.56
27643;BME280;15053;48.618;10.024;2023-12-07T09:10:07;94577.34;;;3.50;85.00
27643;BME280;15053;48.618;10.024;2023-12-07T09:12:35;94578.19;;;3.56;84.75
27643;BME280;15053;48.618;10.024;2023-12-07T09:15:06;94579.91;;;3.67;84.70
27643;BME280;15053;48.618;10.024;2023-12-07T09:17:34;94578.31;;;3.83;84.87
27643;BME280;15053;48.618;10.024;2023-12-07T09:20:01;94572.13;;;4.00;84.08
27643;BME280;15053;48.618;10.024;2023-12-07T09:22:28;94579.41;;;4.25;84.15
27643;BME280;15053;48.618;10.024;2023-12-07T09:25:04;94581.22;;;4.46;84.02
27643;BME280;15053;48.618;10.024;2023-12-07T09:27:31;94579.63;;;4.67;82.86
27643;BME280;15053;48.618;10.024;2023-12-07T09:29:59;94576.69;;;4.80;82.40
27643;BME280;15053;48.618;10.024;2023-12-07T09:32:26;94579.94;;;4.97;82.17
27643;BME280;15053;48.618;10.024;2023-12-07T09:35:03;94570.34;;;5.19;80.94
27643;BME280;15053;48.618;10.024;2023-12-07T09:37:30;94572.81;;;5.36;80.65
27643;BME280;15053;48.618;10.024;2023-12-07T09:39:56;94568.81;;;5.55;81.17
27643;BME280;15053;48.618;10.024;2023-12-07T09:42:23;94551.34;;;5.67;79.03
27643;BME280;15053;48.618;10.024;2023-12-07T09:44:57;94559.28;;;5.92;77.66
27643;BME280;15053;48.618;10.024;2023-12-07T09:47:26;94560.41;;;6.07;76.77
27643;BME280;15053;48.618;10.024;2023-12-07T09:50:02;94561.25;;;6.22;75.09
27643;BME280;15053;48.618;10.024;2023-12-07T09:52:29;94559.00;;;6.36;74.40
27643;BME280;15053;48.618;10.024;2023-12-07T09:54:56;94546.63;;;6.48;72.47
27643;BME280;15053;48.618;10.024;2023-12-07T09:57:23;94534.22;;;6.60;71.97
27643;BME280;15053;48.618;10.024;2023-12-07T09:59:52;94533.00;;;6.73;70.29
27643;BME280;15053;48.618;10.024;2023-12-07T10:02:19;94530.69;;;6.86;69.07
27643;BME280;15053;48.618;10.024;2023-12-07T10:04:45;94515.44;;;6.95;67.99
27643;BME280;15053;48.618;10.024;2023-12-07T10:07:12;94530.69;;;7.06;68.41
27643;BME280;15053;48.618;10.024;2023-12-07T10:09:39;94526.31;;;7.12;68.14
27643;BME280;15053;48.618;10.024;2023-12-07T10:12:09;94519.31;;;7.07;68.05
27643;BME280;15053;48.618;10.024;2023-12-07T10:14:37;94510.75;;;7.12;66.17
27643;BME280;15053;48.618;10.024;2023-12-07T10:17:04;94511.53;;;7.23;65.34
27643;BME280;15053;48.618;10.024;2023-12-07T10:19:32;94508.97;;;7.38;65.17
27643;BME280;15053;48.618;10.024;2023-12-07T10:21:59;94503.78;;;7.43;61.57
27643;BME280;15053;48.618;10.024;2023-12-07T10:24:26;94510.50;;;7.24;61.08
27643;BME280;15053;48.618;10.024;2023-12-07T10:26:54;94511.81;;;7.26;61.30
27643;BME280;15053;48.618;10.024;2023-12-07T10:29:29;94498.34;;;7.29;61.17
27643;BME280;15053;48.618;10.024;2023-12-07T10:32:01;94504.31;;;7.35;59.18
27643;BME280;15053;48.618;10.024;2023-12-07T10:34:29;94498.34;;;7.14;58.92
27643;BME280;15053;48.618;10.024;2023-12-07T10:36:56;94493.44;;;6.97;58.14
27643;BME280;15053;48.618;10.024;2023-12-07T10:39:24;94492.13;;;7.05;59.16
27643;BME280;15053;48.618;10.024;2023-12-07T10:42:02;94474.53;;;7.22;58.80
27643;BME280;15053;48.618;10.024;2023-12-07T10:44:29;94478.41;;;7.25;59.84
27643;BME280;15053;48.618;10.024;2023-12-07T10:46:57;94472.72;;;7.33;59.14
27643;BME280;15053;48.618;10.024;2023-12-07T10:49:26;94471.38;;;7.50;59.88
27643;BME280;15053;48.618;10.024;2023-12-07T10:52:03;94470.03;;;7.73;59.88
27643;BME280;15053;48.618;10.024;2023-12-07T10:54:58;94467.06;;;8.05;60.24
27643;BME280;15053;48.618;10.024;2023-12-07T10:57:30;94448.06;;;8.29;59.60
27643;BME280;15053;48.618;10.024;2023-12-07T11:00:00;94440.69;;;8.52;58.73
27643;BME280;15053;48.618;10.024;2023-12-07T11:02:28;94435.88;;;8.74;58.65
27643;BME280;15053;48.618;10.024;2023-12-07T11:04:56;94436.22;;;8.96;57.86
27643;BME280;15053;48.618;10.024;2023-12-07T11:07:25;94435.59;;;9.09;56.81
27643;BME280;15053;48.618;10.024;2023-12-07T11:10:07;94443.78;;;9.26;56.11
27643;BME280;15053;48.618;10.024;2023-12-07T11:13:05;94444.19;;;9.38;54.04
27643;BME280;15053;48.618;10.024;2023-12-07T11:15:35;94437.31;;;9.24;52.81
27643;BME280;15053;48.618;10.024;2023-12-07T11:18:02;94438.03;;;9.29;53.29
27643;BME280;15053;48.618;10.024;2023-12-07T11:20:42;94446.19;;;9.46;53.73
27643;BME280;15053;48.618;10.024;2023-12-07T11:23:10;94450.50;;;9.56;52.79
27643;BME280;15053;48.618;10.024;2023-12-07T11:25:37;94437.63;;;9.46;52.83
27643;BME280;15053;48.618;10.024;2023-12-07T11:28:05;94446.59;;;9.59;53.03
27643;BME280;15053;48.618;10.024;2023-12-07T11:30:34;94466.41;;;9.55;50.89
27643;BME280;15053;48.618;10.024;2023-12-07T11:33:05;94458.59;;;9.55;51.37
27643;BME280;15053;48.618;10.024;2023-12-07T11:38:28;94444.69;;;9.69;51.34
27643;BME280;15053;48.618;10.024;2023-12-07T11:40:56;94440.94;;;9.80;51.25
27643;BME280;15053;48.618;10.024;2023-12-07T11:45:59;94424.03;;;10.01;50.17
27643;BME280;15053;48.618;10.024;2023-12-07T11:48:26;94426.63;;;10.25;50.55
27643;BME280;15053;48.618;10.024;2023-12-07T11:50:56;94424.03;;;10.44;50.29
27643;BME280;15053;48.618;10.024;2023-12-07T11:53:24;94415.47;;;10.62;49.90
27643;BME280;15053;48.618;10.024;2023-12-07T11:55:52;94406.44;;;10.73;50.13
27643;BME280;15053;48.618;10.024;2023-12-07T11:58:19;94406.75;;;10.85;49.41
27643;BME280;15053;48.618;10.024;2023-12-07T12:00:46;94395.06;;;10.83;46.85
27643;BME280;15053;48.618;10.024;2023-12-07T12:03:14;94387.13;;;10.74;47.22
27643;BME280;15053;48.618;10.024;2023-12-07T12:05:41;94395.09;;;10.64;47.77
27643;BME280;15053;48.618;10.024;2023-12-07T12:08:10;94396.53;;;10.56;47.82
27643;BME280;15053;48.618;10.024;2023-12-07T12:10:38;94379.91;;;10.52;48.07
27643;BME280;15053;48.618;10.024;2023-12-07T12:13:04;94395.47;;;10.76;47.52
27643;BME280;15053;48.618;10.024;2023-12-07T12:15:32;94387.47;;;10.86;47.63
27643;BME280;15053;48.618;10.024;2023-12-07T12:17:58;94382.84;;;10.83;46.40
27643;BME280;15053;48.618;10.024;2023-12-07T12:20:27;94379.63;;;10.73;46.95
27643;BME280;15053;48.618;10.024;2023-12-07T12:22:54;94372.38;;;10.70;47.64
27643;BME280;15053;48.618;10.024;2023-12-07T12:25:23;94369.22;;;10.54;48.10
27643;BME280;15053;48.618;10.024;2023-12-07T12:28:00;94356.34;;;10.44;47.77
27643;BME280;15053;48.618;10.024;2023-12-07T12:30:30;94365.63;;;10.13;47.56
27643;BME280;15053;48.618;10.024;2023-12-07T12:32:57;94368.75;;;9.91;46.89
27643;BME280;15053;48.618;10.024;2023-12-07T12:35:24;94361.13;;;9.76;46.68
27643;BME280;15053;48.618;10.024;2023-12-07T12:37:51;94349.09;;;9.61;46.68
27643;BME280;15053;48.618;10.024;2023-12-07T12:40:20;94348.50;;;9.64;46.36
27643;BME280;15053;48.618;10.024;2023-12-07T12:42:49;94353.38;;;9.71;45.72
27643;BME280;15053;48.618;10.024;2023-12-07T12:45:19;94340.56;;;9.56;44.99
27643;BME280;15053;48.618;10.024;2023-12-07T12:47:47;94339.34;;;9.48;45.61
27643;BME280;15053;48.618;10.024;2023-12-07T12:50:41;94332.88;;;9.45;45.98
27643;BME280;15053;48.618;10.024;2023-12-07T12:53:09;94329.78;;;9.43;47.69
27643;BME280;15053;48.618;10.024;2023-12-07T12:55:40;94325.63;;;9.42;47.86
27643;BME280;15053;48.618;10.024;2023-12-07T12:58:09;94326.13;;;9.21;48.42
27643;BME280;15053;48.618;10.024;2023-12-07T13:00:39;94326.78;;;9.08;47.92
27643;BME280;15053;48.618;10.024;2023-12-07T13:03:07;94313.28;;;8.77;47.83
27643;BME280;15053;48.618;10.024;2023-12-07T13:05:34;94319.91;;;8.64;48.29
27643;BME280;15053;48.618;10.024;2023-12-07T13:08:01;94319.44;;;8.57;48.72
27643;BME280;15053;48.618;10.024;2023-12-07T13:10:40;94304.22;;;8.46;49.10
27643;BME280;15053;48.618;10.024;2023-12-07T13:13:07;94312.13;;;8.30;49.41